Selfridge Angb Airport
KMTC : now visible

Airfield :











YOU CAN JOIN US ON...

 
LOGIN :

Register | Disclaimer

   EN    FR    IT 

 









Legend :    VFR   Marginal VFR   IFR   Intensive IFR   Very Intensive IFR
Visi :
Ceiling :
>= 8 km
>= 3000ft
5 to 8 km
1000 to 3000 ft
1500m to 5 km
500 to 1000 ft
800 to 1500m
200 to 500 ft
< 800m
< 200 ft
Symbols :   Thunderstorms  Fog  Heavy snow  Heavy precipitations  Wind > 20 kt






- Airport Elevation : 580 ft


KMTC - Selfridge Angb

CURRENT METAR :
  • 250355Z AUTO 14004KT 10SM CLR 19/14 A2979 RMK AO2 VIS 2 1/4 RWY01 SLP090 T01850136 $

EXPIRED METARs :
  • 250256Z 10004KT 10SM FEW070 BKN150 BKN250 19/14 A2980 RMK AO2A SLP094 T01870138 50004 $
  • 250156Z 06007KT 10SM FEW080 SCT150 BKN250 20/12 A2978 RMK AO2A SLP087 T02010121 $
  • 250056Z 05008KT 10SM FEW100 SCT180 BKN250 21/13 A2979 RMK AO2A SLP091 T02110128 $
  • 242356Z 10007KT 10SM FEW180 BKN250 24/10 A2979 RMK AO2A SLP091 T02350095 10246 20231 58014 $

TAF TAF KMTC
Valid from the 24 at 19:00 until the 26 at 01:00 UTC


241900Z 2419/2601 VRB06KT 9999 SKC QNH2974INS
BECMG 2510/2511 16009KT 9999 SCT018 BKN025 510033 QNH2969INS
BECMG 2515/2516 23010G15KT 9000 -SHRA SCT025 OVC040 510033 QNH2971INS
TEMPO 2516/2517 VRB25G35KT 8000 -TSRA BKN025CB OVC040
BECMG 2517/2518 28012G18KT 9000 -SHRA FEW040 510033 QNH2971INS
BECMG 2520/2521 31012G18KT 9999 NSW SKC 510033 QNH2971INS TX25/2422Z TN17/2505Z LAST NO AMDS AFT 2503 NEXT 2511
KZOB FIR / North America



MET'MAP, your aeronautical weather chart ! - Copyright ORBIFLY December 2007 - Disclaimer

ORBIFLY MET'MAP TEAM :

Programming & Development : Alexandra Zaïnal
Original concept : Baudouin d'Aumeries
Technical & hardware support : Manuel Goepfert
Assistance : Marc-Olivier Méhu




SOURCES & CREDITS :

   NOAA       Earth
Advisory